Weather reports worldwide

Advertisment
Puebla Trives/San Mamede, Spain (8051): temperature & dewpoint: 15.02.2020 03:00:00 - 21.02.2020 03:00:00 (CET)Puebla Trives/San Mamede, Spain (8051): wind speed & gusts: 15.02.2020 03:00:00 - 21.02.2020 03:00:00 (CET)Puebla Trives/San Mamede, Spain (8051): wind direction: 15.02.2020 03:00:00 - 21.02.2020 03:00:00 (CET)Puebla Trives/San Mamede, Spain (8051): visibility: 15.02.2020 03:00:00 - 21.02.2020 03:00:00 (CET)Puebla Trives/San Mamede, Spain (8051): sunshine duration: 15.02.2020 03:00:00 - 21.02.2020 03:00:00 (CET)Puebla Trives/San Mamede, Spain (8051): precipitation: 15.02.2020 03:00:00 - 21.02.2020 03:00:00 (CET)
Date & Time tt [°C] td [°C] ff [km/h] ff [kn] fx [km/h] fx [kn] dd vv [km] sd [min] rr [mm]
21.02.2020 03:00:00 - - - - - - - - - -
21.02.2020 02:00:00 3,1 1,3 8 4 18 10 NW 9 0 0,0
21.02.2020 01:00:00 4,3 3,0 9 5 19 11 W 9 0 -
21.02.2020 00:00:00 4,6 2,9 9 5 23 12 WNW 10 0 0,0
20.02.2020 23:00:00 5,0 2,5 11 6 21 11 W 11 0 0,0
20.02.2020 22:00:00 6,4 3,6 12 7 26 14 W 13 0 0,0
20.02.2020 21:00:00 7,3 3,8 16 8 27 15 W 12 0 0,0
20.02.2020 20:00:00 7,6 2,5 9 5 19 10 W 11 0 0,0
20.02.2020 19:00:00 9,1 1,3 7 4 14 8 W 12 0 -
20.02.2020 18:00:00 10,8 1,3 2 1 10 5 E 14 28 0,0
20.02.2020 17:00:00 12,0 2,5 8 4 14 7 ENE 14 60 0,0
20.02.2020 16:00:00 12,9 1,3 4 2 18 10 NNW 11 60 0,0
20.02.2020 15:00:00 12,8 3,9 10 5 27 14 WNW 11 60 0,0
20.02.2020 14:00:00 12,8 3,9 10 5 26 14 WNW 11 60 0,0
20.02.2020 13:00:00 13,0 2,9 3 2 13 7 ENE 14 49 -
20.02.2020 12:00:00 10,5 2,1 4 2 11 6 NE 16 60 0,0
20.02.2020 11:00:00 8,5 1,7 5 3 10 6 ESE 11 60 0,0
20.02.2020 10:00:00 5,4 1,3 6 4 12 7 NNW 13 60 0,0
20.02.2020 09:00:00 2,5 -0,5 7 4 12 7 NNW 12 2 0,0
20.02.2020 08:00:00 1,2 -1,2 5 3 11 6 NNW 12 0 0,0
20.02.2020 07:00:00 1,6 -1,4 5 3 10 6 WNW 12 0 -
20.02.2020 06:00:00 2,4 -1,0 4 2 12 6 NW 13 0 0,0
20.02.2020 05:00:00 2,0 -1,2 5 3 10 6 WSW 12 0 0,0
20.02.2020 04:00:00 2,2 -1,0 6 3 17 9 WNW 12 0 0,0
20.02.2020 03:00:00 2,3 -1,0 6 3 13 7 NNW 12 0 0,0
20.02.2020 02:00:00 2,7 -0,7 8 4 11 6 NNW 13 0 0,0
20.02.2020 01:00:00 3,1 -0,5 5 3 9 5 NNW 13 0 -
20.02.2020 00:00:00 2,5 -1,4 6 4 12 6 NNW 14 0 0,0
19.02.2020 23:00:00 2,8 -1,0 8 4 14 8 NW 13 0 0,0
19.02.2020 22:00:00 3,3 -0,7 8 4 13 7 NW 12 0 0,0
19.02.2020 21:00:00 5,0 0,0 6 3 10 5 NW 13 0 0,0
19.02.2020 20:00:00 7,6 -0,5 4 2 6 3 SW 13 0 0,0
19.02.2020 19:00:00 9,2 -1,2 3 2 6 3 S 12 0 -
19.02.2020 18:00:00 10,2 0,9 4 2 11 6 E 14 26 0,0
19.02.2020 17:00:00 11,4 1,7 5 3 13 7 ENE 12 60 0,0
19.02.2020 16:00:00 11,8 1,5 8 4 14 8 E 13 60 0,0
19.02.2020 15:00:00 12,2 2,3 6 4 13 7 ESE 13 60 0,0
19.02.2020 14:00:00 11,0 1,7 3 2 13 7 NW 14 60 0,0
19.02.2020 13:00:00 8,9 1,3 4 2 14 8 ESE 13 49 -
19.02.2020 12:00:00 6,6 0,6 7 4 16 9 E 12 60 0,0
19.02.2020 11:00:00 4,6 0,4 6 3 12 7 E 11 60 0,0
19.02.2020 10:00:00 2,2 -0,5 3 2 11 6 NW 12 57 0,0
19.02.2020 09:00:00 -0,8 -2,5 6 3 13 7 WNW 11 6 0,0
19.02.2020 08:00:00 -2,3 -3,3 4 2 9 5 WSW 11 0 0,0
19.02.2020 07:00:00 -2,4 -3,6 5 3 13 7 W 12 0 -
19.02.2020 06:00:00 -2,1 -3,3 8 4 12 6 NW 11 0 0,0
19.02.2020 05:00:00 -1,2 -2,5 4 2 11 6 WNW 12 0 0,0
19.02.2020 04:00:00 -1,4 -2,7 4 2 13 7 W 12 0 0,0
19.02.2020 03:00:00 -1,3 -2,7 7 4 14 7 NW 11 0 0,0
19.02.2020 02:00:00 -0,9 -2,2 6 3 11 6 WNW 12 0 0,0
19.02.2020 01:00:00 -0,6 -2,5 5 3 15 8 WNW 12 0 -
19.02.2020 00:00:00 0,3 -1,7 6 3 13 7 NW 12 0 0,0
18.02.2020 23:00:00 1,5 -1,0 8 5 14 8 WNW 12 0 0,0
18.02.2020 22:00:00 2,1 -0,7 8 4 15 8 WNW 11 0 0,0
18.02.2020 21:00:00 3,1 -0,3 8 4 14 7 W 13 0 0,0
18.02.2020 20:00:00 3,8 -0,5 5 3 13 7 W 11 0 0,0
18.02.2020 19:00:00 5,2 -0,3 5 3 27 14 W 13 0 -
18.02.2020 18:00:00 6,6 0,2 10 6 26 14 WNW 12 24 0,0
18.02.2020 17:00:00 7,6 1,1 11 6 22 12 WNW 13 43 0,0
18.02.2020 16:00:00 8,7 1,1 7 4 15 8 WNW 13 37 0,0
18.02.2020 15:00:00 9,4 1,5 4 2 17 9 NW 12 57 0,0
18.02.2020 14:00:00 8,2 1,1 7 4 18 10 WNW 9 51 0,0
18.02.2020 13:00:00 7,2 2,7 5 3 15 8 E 9 50 -
18.02.2020 12:00:00 5,6 2,3 6 3 12 6 ESE 5 60 0,0
18.02.2020 11:00:00 2,1 0,6 4 2 9 5 E 1,9 57 0,0
18.02.2020 10:00:00 2,2 0,2 2 1 10 6 NNW 11 55 0,0
18.02.2020 09:00:00 -1,0 -2,0 7 4 13 7 NW 11 6 0,0
18.02.2020 08:00:00 -2,1 -3,0 7 4 13 7 WNW 10 0 0,0
18.02.2020 07:00:00 -1,5 -2,5 7 4 16 9 W 10 0 -
18.02.2020 06:00:00 -0,5 -1,7 9 5 21 11 WNW 11 0 0,0
18.02.2020 05:00:00 0,1 -1,0 9 5 20 11 WNW 10 0 0,0
18.02.2020 04:00:00 0,8 0,2 10 5 19 10 WNW 6 0 0,0
18.02.2020 03:00:00 1,0 0,2 10 5 20 11 WNW 6 0 0,0
18.02.2020 02:00:00 0,6 -0,5 10 5 19 10 WNW 11 0 0,0
18.02.2020 01:00:00 1,2 0,0 9 5 14 8 WNW 10 0 -
18.02.2020 00:00:00 1,5 0,0 8 4 13 7 WNW 9 0 0,0
17.02.2020 23:00:00 2,4 0,9 8 4 14 7 WNW 10 0 0,0
17.02.2020 22:00:00 3,1 1,1 8 4 19 10 W 7 0 0,0
17.02.2020 21:00:00 3,8 1,7 6 4 14 7 W 11 0 0,0
17.02.2020 20:00:00 4,9 2,1 4 2 16 9 WNW 11 0 0,0
17.02.2020 19:00:00 6,4 2,3 6 3 16 9 W 13 0 -
17.02.2020 18:00:00 8,1 2,7 5 3 22 12 NW 13 16 0,0
17.02.2020 17:00:00 8,3 3,4 11 6 21 11 W 8 18 0,0
17.02.2020 16:00:00 8,7 3,6 6 4 29 16 NW 12 20 0,0
17.02.2020 15:00:00 8,9 3,6 13 7 29 16 WNW 11 15 0,0
17.02.2020 14:00:00 9,3 4,5 14 8 29 16 W 10 36 0,2
17.02.2020 13:00:00 7,9 5,1 10 6 30 16 WNW 8 21 -
17.02.2020 12:00:00 8,6 5,1 13 7 30 16 W 13 45 0,0
17.02.2020 11:00:00 7,5 5,5 14 8 25 14 W 11 12 0,0
17.02.2020 10:00:00 6,6 5,8 13 7 24 13 W 10 1 0,6
17.02.2020 09:00:00 6,0 5,0 10 5 32 18 W 11 0 0,0
17.02.2020 08:00:00 6,1 5,1 17 9 39 21 W 2,0 0 1,8
17.02.2020 07:00:00 7,2 6,2 12 7 29 15 W 3,2 0 -
17.02.2020 06:00:00 8,3 7,4 10 6 34 18 W 3,2 0 2,2
17.02.2020 05:00:00 9,4 8,4 14 7 42 23 W 3,1 0 1,2
17.02.2020 04:00:00 11,3 9,6 11 6 30 16 WSW 3,5 0 0,2
17.02.2020 03:00:00 11,3 9,0 4 2 23 13 N 12 0 0,0
17.02.2020 02:00:00 11,2 9,3 3 2 16 8 WNW 12 0 0,0
17.02.2020 01:00:00 11,5 9,0 10 5 25 14 SW 7 0 -
17.02.2020 00:00:00 11,6 8,8 10 6 40 21 WSW 12 0 0,0
16.02.2020 23:00:00 11,2 8,9 10 6 22 12 W 7 0 0,0
16.02.2020 22:00:00 11,7 8,8 10 6 29 16 W 7 0 0,0
16.02.2020 21:00:00 11,9 8,5 13 7 30 16 WSW 12 0 0,0
16.02.2020 20:00:00 12,2 7,7 13 7 36 20 WSW 7 0 0,0
16.02.2020 19:00:00 12,2 7,3 17 9 45 25 WSW 13 0 -
16.02.2020 18:00:00 12,9 6,7 19 10 44 24 WSW 7 16 0,0
16.02.2020 17:00:00 13,7 7,0 18 10 48 26 WSW 11 11 0,0
16.02.2020 16:00:00 15,3 7,3 18 10 44 24 WSW 15 42 0,0
16.02.2020 15:00:00 14,8 7,3 16 8 38 20 WSW 14 10 0,0
16.02.2020 14:00:00 14,9 7,1 20 11 50 27 WSW 14 48 0,0
16.02.2020 13:00:00 15,3 8,1 17 9 45 24 SW 14 22 -
16.02.2020 12:00:00 12,7 7,4 17 9 39 21 SW 13 6 0,0
16.02.2020 11:00:00 11,9 8,0 9 5 23 12 E 11 28 0,0
16.02.2020 10:00:00 11,1 7,3 10 6 31 17 E 15 49 0,0
16.02.2020 09:00:00 8,8 6,5 10 5 28 15 ESE 13 0 0,0
16.02.2020 08:00:00 8,8 6,4 13 7 30 16 E 12 0 0,0
16.02.2020 07:00:00 9,0 5,8 11 6 32 17 NNE 13 0 -
16.02.2020 06:00:00 9,0 5,9 12 7 28 15 NE 13 0 0,0
16.02.2020 05:00:00 8,7 5,8 11 6 26 14 NNE 12 0 0,0
16.02.2020 04:00:00 8,5 5,6 10 6 21 11 E 12 0 0,0
16.02.2020 03:00:00 8,7 5,6 7 4 22 12 E 13 0 0,0
16.02.2020 02:00:00 8,6 5,5 13 7 30 16 ESE 13 0 0,0
16.02.2020 01:00:00 8,5 5,3 11 6 22 12 ENE 13 0 -
16.02.2020 00:00:00 8,3 5,0 8 4 18 10 NNE 13 0 0,0
15.02.2020 23:00:00 8,6 5,0 10 5 21 11 N 14 0 0,0
15.02.2020 22:00:00 8,0 4,8 8 5 18 10 N 13 0 0,0
15.02.2020 21:00:00 8,5 5,3 12 6 24 13 ENE 13 0 0,0
15.02.2020 20:00:00 9,4 4,1 4 2 18 10 WSW 13 0 0,0
15.02.2020 19:00:00 10,1 4,6 12 7 22 12 W 13 0 -
15.02.2020 18:00:00 11,5 5,8 6 4 27 14 E 12 0 0,0
15.02.2020 17:00:00 12,0 5,5 8 5 38 21 WSW 12 0 0,0
15.02.2020 16:00:00 13,0 5,0 17 9 36 19 W 15 27 0,0
15.02.2020 15:00:00 13,3 6,4 8 5 24 13 ENE 14 59 0,0
15.02.2020 14:00:00 13,4 6,1 8 4 23 12 NE 13 58 0,0
15.02.2020 13:00:00 11,1 7,0 9 5 18 10 ENE 17 5 -
15.02.2020 12:00:00 9,9 6,8 7 4 16 9 ENE 12 10 0,0
15.02.2020 11:00:00 8,6 6,2 8 4 16 9 E 12 49 0,0
15.02.2020 10:00:00 8,1 6,4 3 2 8 4 E 13 59 0,0
15.02.2020 09:00:00 5,2 4,5 2 1 13 7 N 11 0 0,0
15.02.2020 08:00:00 4,0 3,4 8 4 15 8 NW 9 0 0,0
15.02.2020 07:00:00 3,9 3,2 8 5 13 7 NNW 9 0 -
15.02.2020 06:00:00 4,1 3,6 3 2 13 7 N 9 0 0,0
15.02.2020 05:00:00 3,9 3,2 6 3 13 7 NW 8 0 0,0
15.02.2020 04:00:00 3,8 3,0 4 2 13 7 NW 9 0 0,0
15.02.2020 03:00:00 4,0 3,0 3 2 10 5 NW 8 0 0,0

tt = temperature
td = dewpoint
ff = wind speed
fx = gusts
dd = wind direction
vv = visibility
sd = sunshine duration
rr = precipitation

Next stations